Magnum 1 — CRLV — position and weather

sailwx.info

Track history (hours):
 
Tides and Currents Weather Stations Pressure Air Temp Water Temp Dewpoint Dewpoint Depression Visibility Wind Speed Wind Dir Waves Ship Positions

Magnum 1

Last reported at 2016-Jul-15 08:26 UTC. Time now 2016-Jul-24 04:52 UTC.
Position N 37°47' W 008°53'.
Warning: this ship's position is 8 days out of date.

Length 11 m.

Type: Sailing vessel. MMSI: 263970000.

Date/timePositionNaut miles runAvg speedWind from/ knotsBaromVisibWave heightAir tempDewpointWater temp
2016-Jul-15 08:26N 37°47' W 008°53'5 6.0
2016-Jul-15 07:33N 37°52' W 008°53'5 4.7
2016-Jul-15 06:33N 37°57' W 008°52'0 0.0
2016-Jul-14 19:12N 37°57' W 008°52'0 0.0
2016-Jul-14 18:33N 37°57' W 008°52'1 1.4
2016-Jul-14 17:33N 37°56' W 008°53'5 4.5
2016-Jul-14 16:33N 37°59' W 008°58'5 5.4
2016-Jul-14 15:33N 38°04' W 009°01'5 4.7
2016-Jul-14 14:33N 38°08' W 009°02'6 5.9
2016-Jul-14 13:33N 38°14' W 009°02'19 4.5
2016-Jul-14 09:18N 38°30' W 009°16'4 5.3
2016-Jul-14 08:33N 38°34' W 009°17'6 5.4
2016-Jul-14 07:30N 38°39' W 009°19'5 4.9
2016-Jul-14 06:32N 38°41' W 009°14'  
Track history (hours):
 
Tides and Currents Weather Stations Pressure Air Temp Water Temp Dewpoint Dewpoint Depression Visibility Wind Speed Wind Dir Waves Ship Positions

Magnum 1

Last reported at 2016-Jul-15 08:26 UTC. Time now 2016-Jul-24 04:52 UTC.
Position N 37°47' W 008°53'.
Warning: this ship's position is 8 days out of date.

Length 11 m.

Type: Sailing vessel. MMSI: 263970000.

Date/timePositionNaut miles runAvg speedWind from/ knotsBaromVisibWave heightAir tempDewpointWater temp
2016-Jul-15 08:26N 37°47' W 008°53'5 6.0
2016-Jul-15 07:33N 37°52' W 008°53'5 4.7
2016-Jul-15 06:33N 37°57' W 008°52'0 0.0
2016-Jul-14 19:12N 37°57' W 008°52'0 0.0
2016-Jul-14 18:33N 37°57' W 008°52'1 1.4
2016-Jul-14 17:33N 37°56' W 008°53'5 4.5
2016-Jul-14 16:33N 37°59' W 008°58'5 5.4
2016-Jul-14 15:33N 38°04' W 009°01'5 4.7
2016-Jul-14 14:33N 38°08' W 009°02'6 5.9
2016-Jul-14 13:33N 38°14' W 009°02'19 4.5
2016-Jul-14 09:18N 38°30' W 009°16'4 5.3
2016-Jul-14 08:33N 38°34' W 009°17'6 5.4
2016-Jul-14 07:30N 38°39' W 009°19'5 4.9
2016-Jul-14 06:32N 38°41' W 009°14'  

Dump ship's entire track history